Time;durP1;ratioP1;P1;durP2;ratioP2;P2;SDS_P1;SDS_P2;PMS_P1;PMS_P2;Temp;Humidity;BMP_temperature;BMP_pressure;BME280_temperature;BME280_humidity;BME280_pressure;Samples;Min_cycle;Max_cycle;Signal;HPM_P1;HPM_P2
2024/01/15 00:00:48;;;;;;;24.60;15.20;;;;;;;-0.98;79.30;99002.75;10442634;28;20078;-61
2024/01/15 00:05:50;;;;;;;24.90;15.20;;;;;;;-1.10;79.89;98985.09;10444187;28;20060;-62
2024/01/15 00:10:52;;;;;;;23.92;14.35;;;;;;;-1.07;80.96;98990.16;10444029;28;20101;-62
2024/01/15 00:15:54;;;;;;;22.73;13.95;;;;;;;-1.05;80.76;98995.31;10430993;28;20047;-62
2024/01/15 00:20:55;;;;;;;25.05;15.02;;;;;;;-1.11;81.44;98988.63;10441406;28;20053;-62
2024/01/15 00:25:57;;;;;;;26.23;14.82;;;;;;;-1.12;83.05;98979.13;10442259;28;20849;-62
2024/01/15 00:30:59;;;;;;;23.25;14.52;;;;;;;-1.00;82.57;98968.03;10440725;28;20108;-61
2024/01/15 00:36:01;;;;;;;18.30;13.40;;;;;;;-0.95;82.52;98978.22;10441583;28;20092;-61
2024/01/15 00:41:02;;;;;;;23.65;13.73;;;;;;;-1.00;82.63;98973.25;10425634;28;20063;-62
2024/01/15 00:46:05;;;;;;;22.20;14.23;;;;;;;-0.87;81.94;98964.75;10416766;28;20056;-61
2024/01/15 00:51:07;;;;;;;20.10;12.30;;;;;;;-1.05;82.44;98928.25;10435631;28;20076;-62
2024/01/15 00:56:08;;;;;;;22.65;14.05;;;;;;;-1.09;82.13;98953.69;10438714;28;20459;-62
2024/01/15 01:01:10;;;;;;;20.98;13.10;;;;;;;-0.93;82.69;98945.00;10438419;28;20079;-62
2024/01/15 01:06:11;;;;;;;18.02;11.73;;;;;;;-0.96;82.73;98947.78;10439095;28;20060;-62
2024/01/15 01:11:14;;;;;;;22.02;13.38;;;;;;;-0.88;82.25;98937.78;10416887;28;20688;-62
2024/01/15 01:16:15;;;;;;;25.77;13.63;;;;;;;-0.90;82.88;98939.66;10440330;28;20056;-61
2024/01/15 01:21:17;;;;;;;29.27;14.02;;;;;;;-0.90;82.39;98950.09;10445395;28;20160;-63
2024/01/15 01:26:18;;;;;;;21.52;13.70;;;;;;;-0.82;82.12;98947.91;10440646;28;20052;-63
2024/01/15 01:31:20;;;;;;;23.20;14.63;;;;;;;-0.79;82.49;98944.28;10438608;28;20106;-62
2024/01/15 01:36:22;;;;;;;21.25;13.85;;;;;;;-0.73;81.93;98930.88;10435144;28;20159;-63
2024/01/15 01:41:24;;;;;;;25.67;15.73;;;;;;;-0.67;81.46;98934.94;10437507;28;20059;-62
2024/01/15 01:46:28;;;;;;;25.13;14.88;;;;;;;-0.69;81.33;98915.88;10438570;28;20053;-62
2024/01/15 01:51:31;;;;;;;20.98;13.38;;;;;;;-0.63;80.79;98928.59;10430113;28;20048;-63
2024/01/15 01:56:32;;;;;;;23.67;13.85;;;;;;;-0.72;80.14;98924.75;10437338;28;20178;-62
2024/01/15 02:01:34;;;;;;;24.92;14.75;;;;;;;-0.76;80.47;98934.50;10434355;28;20060;-62
2024/01/15 02:06:36;;;;;;;23.15;14.68;;;;;;;-0.66;79.58;98931.38;10409557;28;20047;-62
2024/01/15 02:11:38;;;;;;;20.13;13.88;;;;;;;-0.80;79.70;98935.59;10422277;28;20056;-61
2024/01/15 02:16:39;;;;;;;23.70;14.30;;;;;;;-0.76;79.68;98915.38;10415003;28;20052;-62
2024/01/15 02:21:40;;;;;;;21.45;13.55;;;;;;;-0.79;79.22;98911.16;10411351;28;20721;-62
2024/01/15 02:26:42;;;;;;;20.88;13.98;;;;;;;-0.83;79.20;98887.88;10437021;28;20709;-60
2024/01/15 02:31:44;;;;;;;19.95;12.82;;;;;;;-0.81;79.17;98901.69;10403711;28;20052;-62
2024/01/15 02:36:46;;;;;;;21.42;13.77;;;;;;;-1.00;79.51;98875.78;10437162;28;20052;-62
2024/01/15 02:41:51;;;;;;;22.15;13.57;;;;;;;-0.77;79.74;98911.91;10440501;28;20056;-62
2024/01/15 02:46:52;;;;;;;24.80;14.38;;;;;;;-0.72;79.72;98886.38;10444183;28;20049;-66
2024/01/15 02:51:54;;;;;;;21.52;13.23;;;;;;;-0.61;78.87;98898.84;10444569;28;20053;-61
2024/01/15 02:56:55;;;;;;;23.23;13.15;;;;;;;-0.59;79.26;98893.50;10445669;28;20616;-61
2024/01/15 03:01:56;;;;;;;24.17;13.32;;;;;;;-0.56;80.67;98894.16;10443409;28;20136;-62
2024/01/15 03:06:58;;;;;;;22.10;13.57;;;;;;;-0.59;80.83;98928.31;10441385;28;20121;-62
2024/01/15 03:12:00;;;;;;;23.10;13.63;;;;;;;-0.64;81.75;98906.00;10448017;28;20057;-62
2024/01/15 03:17:01;;;;;;;25.17;14.48;;;;;;;-0.76;83.14;98916.19;10411994;28;20064;-62
2024/01/15 03:22:03;;;;;;;21.35;12.88;;;;;;;-0.76;83.47;98913.59;10419224;28;20048;-62
2024/01/15 03:27:06;;;;;;;22.27;12.77;;;;;;;-0.64;83.69;98921.69;10443940;28;20055;-61
2024/01/15 03:32:09;;;;;;;22.88;13.32;;;;;;;-0.61;83.07;98913.69;10440070;28;20072;-62
2024/01/15 03:37:11;;;;;;;21.63;12.68;;;;;;;-0.59;82.59;98906.59;10446207;28;20056;-62
2024/01/15 03:42:14;;;;;;;23.50;12.38;;;;;;;-0.59;82.25;98893.50;10446834;28;20652;-62
2024/01/15 03:47:15;;;;;;;22.83;14.18;;;;;;;-0.56;82.39;98901.19;10443224;28;20049;-61
2024/01/15 03:52:17;;;;;;;21.85;12.43;;;;;;;-0.55;82.99;98897.66;10437385;28;20063;-62
2024/01/15 03:57:18;;;;;;;18.55;10.93;;;;;;;-0.51;82.93;98896.56;10441000;28;20044;-63
2024/01/15 04:02:20;;;;;;;21.63;12.35;;;;;;;-0.52;84.10;98894.03;10438568;28;20048;-62
2024/01/15 04:07:21;;;;;;;19.27;11.98;;;;;;;-0.46;84.36;98885.84;10431916;28;20623;-62
2024/01/15 04:12:23;;;;;;;18.58;11.80;;;;;;;-0.38;84.71;98888.84;10430954;28;20049;-61
2024/01/15 04:17:24;;;;;;;21.00;12.63;;;;;;;-0.32;83.99;98883.25;10427515;28;20055;-62
2024/01/15 04:22:26;;;;;;;18.63;11.25;;;;;;;-0.32;83.26;98885.03;10417222;28;20712;-61
2024/01/15 04:27:28;;;;;;;17.75;11.10;;;;;;;-0.30;82.77;98877.94;10419532;28;20064;-62
2024/01/15 04:32:30;;;;;;;20.52;10.98;;;;;;;-0.18;82.68;98877.25;10442473;28;20063;-62
2024/01/15 04:37:32;;;;;;;15.98;9.93;;;;;;;-0.23;81.78;98881.88;10442707;28;20162;-61
2024/01/15 04:42:35;;;;;;;16.85;9.80;;;;;;;-0.33;81.73;98880.72;10447652;28;20052;-61
2024/01/15 04:47:37;;;;;;;20.40;11.40;;;;;;;-0.26;81.96;98884.69;10448779;28;20057;-60
2024/01/15 04:52:38;;;;;;;18.88;10.63;;;;;;;-0.18;81.49;98885.09;10457093;28;21047;-62
2024/01/15 04:57:40;;;;;;;17.30;10.20;;;;;;;-0.12;81.98;98876.88;10426797;28;20049;-60
2024/01/15 05:02:41;;;;;;;16.95;10.02;;;;;;;-0.27;81.44;98843.75;10427174;28;20064;-62
2024/01/15 05:07:43;;;;;;;19.67;11.10;;;;;;;-0.20;81.38;98866.84;10439568;28;21547;-61
2024/01/15 05:12:44;;;;;;;24.27;11.32;;;;;;;-0.12;81.42;98853.34;10418176;28;20063;-61
2024/01/15 05:17:46;;;;;;;19.20;11.38;;;;;;;-0.11;81.32;98847.16;10443099;28;20060;-61
2024/01/15 05:22:47;;;;;;;16.77;10.48;;;;;;;0.02;81.09;98843.84;10439463;28;20075;-62
2024/01/15 05:27:49;;;;;;;19.42;11.77;;;;;;;0.01;81.06;98847.38;10434240;28;20638;-62
2024/01/15 05:32:52;;;;;;;17.20;11.10;;;;;;;0.01;80.96;98836.91;10437929;28;20056;-61
2024/01/15 05:37:54;;;;;;;18.63;11.48;;;;;;;0.06;80.93;98846.19;10434310;28;20060;-62
2024/01/15 05:42:58;;;;;;;17.58;10.57;;;;;;;0.11;80.49;98843.28;10441128;28;20895;-64
2024/01/15 05:48:00;;;;;;;18.00;11.25;;;;;;;0.12;81.58;98851.03;10416816;28;20186;-62
2024/01/15 05:53:03;;;;;;;18.00;10.73;;;;;;;0.20;82.91;98861.03;10412901;28;20052;-63
2024/01/15 05:58:05;;;;;;;23.42;13.68;;;;;;;0.13;81.40;98846.63;10439769;28;20186;-62
2024/01/15 06:03:06;;;;;;;17.75;12.38;;;;;;;0.14;81.61;98850.94;10402984;28;20150;-62
2024/01/15 06:08:09;;;;;;;20.10;12.32;;;;;;;0.07;81.57;98850.47;10426439;28;21012;-61
2024/01/15 06:13:10;;;;;;;21.13;12.38;;;;;;;0.07;81.64;98857.47;10436218;28;20544;-62
2024/01/15 06:18:12;;;;;;;20.13;12.07;;;;;;;0.05;81.84;98841.88;10406667;28;20119;-63
2024/01/15 06:23:14;;;;;;;20.13;11.95;;;;;;;0.15;81.55;98834.28;10438087;28;20060;-62
2024/01/15 06:28:16;;;;;;;19.08;12.18;;;;;;;-0.15;83.02;98822.13;10437559;28;20053;-61
2024/01/15 06:33:18;;;;;;;18.58;11.85;;;;;;;0.17;83.39;98874.31;10421484;28;20165;-62
2024/01/15 06:38:19;;;;;;;17.92;11.85;;;;;;;0.17;83.50;98866.47;10432474;28;20057;-62
2024/01/15 06:43:21;;;;;;;19.38;11.55;;;;;;;0.15;84.36;98860.47;10428274;28;20483;-61
2024/01/15 06:48:23;;;;;;;22.85;13.63;;;;;;;0.14;84.32;98853.56;10432321;28;20494;-62
2024/01/15 06:53:24;;;;;;;21.55;13.60;;;;;;;0.13;84.86;98851.88;10435808;28;20052;-62
2024/01/15 06:58:27;;;;;;;19.73;11.20;;;;;;;0.24;85.18;98849.47;10411524;28;20152;-62
2024/01/15 07:03:28;;;;;;;20.50;12.38;;;;;;;0.25;85.85;98848.50;10422422;28;20063;-61
2024/01/15 07:08:30;;;;;;;20.63;12.82;;;;;;;0.12;85.35;98851.03;10408500;28;20478;-63
2024/01/15 07:13:32;;;;;;;21.05;12.40;;;;;;;-0.03;85.10;98842.34;10438350;28;20068;-63
2024/01/15 07:18:33;;;;;;;17.67;11.82;;;;;;;0.04;84.38;98832.31;10409245;28;20087;-62
2024/01/15 07:23:35;;;;;;;19.42;12.77;;;;;;;0.14;83.74;98832.63;10423892;28;20048;-62
2024/01/15 07:28:36;;;;;;;20.33;11.93;;;;;;;-0.12;84.94;98842.88;10419389;28;20197;-63
2024/01/15 07:33:39;;;;;;;18.75;12.30;;;;;;;-0.05;86.30;98844.19;10417970;28;20067;-63
2024/01/15 07:38:40;;;;;;;19.88;12.52;;;;;;;-0.07;85.57;98850.47;10422433;28;20044;-63
2024/01/15 07:43:42;;;;;;;19.52;12.63;;;;;;;-0.06;85.89;98846.88;10445768;28;20076;-61
2024/01/15 07:48:43;;;;;;;20.30;12.27;;;;;;;0.07;85.28;98849.63;10445323;28;20135;-63
2024/01/15 07:53:46;;;;;;;21.75;13.73;;;;;;;0.07;85.13;98847.84;10447262;28;20052;-63
2024/01/15 07:58:48;;;;;;;21.77;13.60;;;;;;;0.15;84.99;98829.94;10448225;28;20718;-64
2024/01/15 08:03:49;;;;;;;20.35;13.02;;;;;;;0.13;85.82;98826.53;10432692;28;20105;-62
2024/01/15 08:08:51;;;;;;;17.10;11.43;;;;;;;0.11;88.76;98830.19;10442901;28;20126;-62
2024/01/15 08:13:52;;;;;;;21.73;12.60;;;;;;;0.07;88.37;98815.63;10448533;28;20065;-63
2024/01/15 08:18:54;;;;;;;19.00;11.98;;;;;;;0.20;87.19;98840.13;10440817;28;20131;-62
2024/01/15 08:23:58;;;;;;;20.83;13.00;;;;;;;0.27;87.31;98833.56;10440437;28;20048;-59
2024/01/15 08:28:59;;;;;;;20.65;13.07;;;;;;;0.40;86.66;98830.19;10431316;28;20594;-63
2024/01/15 08:34:02;;;;;;;17.85;12.40;;;;;;;0.42;85.57;98831.81;10428906;28;20952;-62
2024/01/15 08:39:04;;;;;;;17.30;11.02;;;;;;;0.49;85.22;98816.53;10438761;28;20056;-65
2024/01/15 08:44:05;;;;;;;20.33;13.00;;;;;;;0.48;84.95;98822.69;10399285;28;20068;-64
2024/01/15 08:49:07;;;;;;;17.67;12.57;;;;;;;0.52;84.89;98813.72;10427623;28;20148;-62
2024/01/15 08:54:08;;;;;;;20.77;13.57;;;;;;;0.48;85.34;98812.22;10397082;28;20119;-62
2024/01/15 08:59:11;;;;;;;20.13;13.52;;;;;;;0.56;85.15;98825.69;10423888;28;20056;-61
2024/01/15 09:04:12;;;;;;;22.50;12.00;;;;;;;0.57;84.18;98832.63;10417565;28;20351;-63
2024/01/15 09:09:14;;;;;;;19.13;12.68;;;;;;;0.50;83.26;98818.22;10436366;28;20062;-63
2024/01/15 09:14:15;;;;;;;17.88;12.13;;;;;;;0.45;83.28;98828.13;10436499;28;20522;-62
2024/01/15 09:19:19;;;;;;;22.17;13.95;;;;;;;0.34;83.55;98803.44;10406625;28;20060;-62
2024/01/15 09:24:22;;;;;;;18.92;14.13;;;;;;;0.46;83.73;98811.50;10427354;28;20199;-63
2024/01/15 09:29:29;;;;;;;19.85;14.50;;;;;;;0.64;83.12;98805.09;10398693;28;20076;-62
2024/01/15 09:34:30;;;;;;;35.88;23.73;;;;;;;0.72;82.99;98796.75;10436664;28;20094;-63
2024/01/15 09:39:32;;;;;;;21.00;11.95;;;;;;;0.86;81.44;98804.59;10422067;28;20052;-63
2024/01/15 09:44:34;;;;;;;30.50;21.88;;;;;;;1.00;81.40;98801.09;10439143;28;20059;-62
2024/01/15 09:49:37;;;;;;;17.33;11.77;;;;;;;1.07;80.29;98785.81;10431900;28;20059;-63
2024/01/15 09:54:40;;;;;;;21.65;14.95;;;;;;;1.38;79.81;98784.66;10389469;28;20044;-62
2024/01/15 09:59:42;;;;;;;15.25;10.75;;;;;;;1.69;78.45;98789.63;10429280;28;20715;-61
2024/01/15 10:04:45;;;;;;;17.90;11.48;;;;;;;1.94;77.83;98791.44;10435445;28;20053;-63
2024/01/15 10:09:47;;;;;;;14.82;9.82;;;;;;;1.80;77.32;98779.25;10422951;28;20107;-61
2024/01/15 10:14:50;;;;;;;16.77;11.82;;;;;;;1.75;76.62;98774.31;10437044;28;20056;-65
2024/01/15 10:19:51;;;;;;;15.98;11.10;;;;;;;1.77;77.20;98785.56;10428559;28;20766;-61
2024/01/15 10:24:54;;;;;;;17.38;11.02;;;;;;;1.86;76.86;98798.97;10438648;28;20049;-65
2024/01/15 10:30:00;;;;;;;15.85;9.80;;;;;;;1.91;76.66;98771.50;10437224;28;20252;-64
2024/01/15 10:35:02;;;;;;;;;;;;;;;2.01;76.17;98790.09;10422341;28;20044;-63
2024/01/15 10:40:05;;;;;;;21.42;12.68;;;;;;;2.15;76.55;98778.63;10422404;28;19932;-63
2024/01/15 10:45:10;;;;;;;;;;;;;;;2.12;74.97;98763.09;10435262;28;20048;-63
2024/01/15 10:50:12;;;;;;;15.35;10.43;;;;;;;2.06;75.41;98738.09;10437625;28;21028;-64
2024/01/15 10:55:14;;;;;;;22.85;17.58;;;;;;;2.43;75.27;98746.03;10380746;28;20057;-63
2024/01/15 11:00:20;;;;;;;18.70;11.70;;;;;;;2.89;71.73;98735.78;10407121;28;20083;-66
2024/01/15 11:05:22;;;;;;;15.18;11.30;;;;;;;3.66;69.94;98728.28;10445984;28;20049;-64
2024/01/15 11:10:48;;;;;;;15.65;10.27;;;;;;;4.22;66.93;98726.66;10436648;28;20044;-67
2024/01/15 11:16:08;;;;;;;16.90;10.57;;;;;;;4.81;64.34;98717.53;10421174;28;20045;-64
2024/01/15 11:21:15;;;;;;;16.35;10.73;;;;;;;4.52;64.64;98723.38;10438115;28;20541;-64
2024/01/15 11:26:35;;;;;;;14.02;9.75;;;;;;;3.77;66.93;98718.69;10412139;28;20056;-63
2024/01/15 11:31:39;;;;;;;13.40;9.93;;;;;;;3.08;69.74;98715.09;10437855;28;20045;-64
2024/01/15 11:36:56;;;;;;;13.73;9.93;;;;;;;2.96;70.66;98716.00;10430283;28;20055;-64
2024/01/15 11:42:00;;;;;;;11.95;9.45;;;;;;;3.04;71.38;98703.09;10422884;28;20526;-64
2024/01/15 11:47:06;;;;;;;13.07;10.07;;;;;;;2.95;71.23;98696.72;10425919;28;20055;-66
2024/01/15 11:52:11;;;;;;;15.05;9.20;;;;;;;2.87;71.54;98695.63;10421701;28;20147;-64
2024/01/15 11:57:33;;;;;;;13.80;9.30;;;;;;;2.86;72.97;98717.63;10427082;28;20055;-65
2024/01/15 12:02:35;;;;;;;10.90;8.85;;;;;;;2.92;72.51;98711.91;10401479;28;20052;-63
2024/01/15 12:07:37;;;;;;;12.15;8.77;;;;;;;2.78;72.39;98702.41;10389051;28;20045;-65
2024/01/15 12:13:05;;;;;;;13.90;8.77;;;;;;;2.76;74.18;98699.91;10417359;28;20045;-63
2024/01/15 12:18:09;;;;;;;10.98;7.82;;;;;;;2.78;73.95;98687.47;10422844;28;20083;-65
2024/01/15 12:23:11;;;;;;;12.00;9.35;;;;;;;2.98;73.56;98693.03;10434819;28;20048;-64
2024/01/15 12:28:14;;;;;;;12.25;8.68;;;;;;;2.91;73.61;98697.94;10428814;28;20045;-65
2024/01/15 12:33:20;;;;;;;13.57;10.00;;;;;;;2.93;73.85;98706.53;10401348;28;20173;-65
2024/01/15 12:38:21;;;;;;;11.10;7.95;;;;;;;2.96;74.29;98703.69;10429905;28;20532;-63
2024/01/15 12:43:24;;;;;;;12.00;8.90;;;;;;;3.04;73.87;98713.63;10419364;28;20057;-66
2024/01/15 12:48:26;;;;;;;10.25;7.88;;;;;;;2.96;74.58;98706.31;10400243;28;20052;-65
2024/01/15 12:53:28;;;;;;;9.88;8.00;;;;;;;2.67;75.20;98674.25;10416752;28;20053;-65
2024/01/15 12:58:31;;;;;;;9.97;7.73;;;;;;;3.08;74.42;98709.81;10408758;28;20068;-67
2024/01/15 13:03:33;;;;;;;11.10;8.32;;;;;;;3.16;73.00;98714.50;10397293;28;20518;-66
2024/01/15 13:08:34;;;;;;;11.05;8.07;;;;;;;3.35;71.99;98714.81;10432379;28;20903;-66
2024/01/15 13:13:36;;;;;;;10.75;7.40;;;;;;;4.48;69.74;98710.56;10404178;28;20252;-64
2024/01/15 13:18:37;;;;;;;10.23;7.22;;;;;;;4.90;66.68;98684.31;10426976;28;20063;-66
2024/01/15 13:23:43;;;;;;;14.20;8.00;;;;;;;5.35;62.82;98704.38;10441179;28;20053;-64
2024/01/15 13:28:44;;;;;;;7.75;5.47;;;;;;;5.77;61.97;98699.09;10418319;28;20512;-64
2024/01/15 13:33:46;;;;;;;8.32;6.10;;;;;;;5.03;62.67;98705.22;10412622;28;20049;-64
2024/01/15 13:38:48;;;;;;;8.38;6.13;;;;;;;4.44;65.79;98715.22;10419207;28;20044;-64
2024/01/15 13:43:53;;;;;;;7.68;5.28;;;;;;;4.01;66.71;98723.91;10438932;28;20544;-64
2024/01/15 13:48:54;;;;;;;7.03;5.47;;;;;;;3.85;68.19;98724.22;10416975;28;20584;-64
2024/01/15 13:53:57;;;;;;;7.55;5.68;;;;;;;3.95;68.57;98729.59;10411527;28;20058;-64
2024/01/15 13:58:59;;;;;;;6.72;4.90;;;;;;;3.87;68.42;98738.97;10414089;28;20052;-64
2024/01/15 14:04:00;;;;;;;6.45;4.15;;;;;;;3.66;68.73;98732.69;10390410;28;20077;-64
2024/01/15 14:09:04;;;;;;;6.32;4.97;;;;;;;3.62;69.47;98747.88;10415392;28;20459;-65
2024/01/15 14:14:07;;;;;;;6.72;3.95;;;;;;;3.47;69.76;98757.78;10371395;28;20056;-64
2024/01/15 14:19:09;;;;;;;7.15;4.15;;;;;;;3.44;70.18;98758.00;10424154;28;20045;-63
2024/01/15 14:24:14;;;;;;;6.07;3.83;;;;;;;3.38;69.67;98774.25;10432229;28;20144;-64
2024/01/15 14:29:16;;;;;;;6.45;3.38;;;;;;;3.21;70.21;98766.75;10375152;28;20074;-64
2024/01/15 14:34:18;;;;;;;5.40;3.20;;;;;;;3.38;69.74;98790.03;10426230;28;20066;-63
2024/01/15 14:39:25;;;;;;;5.72;3.10;;;;;;;3.24;69.97;98787.56;10421027;28;20709;-65
2024/01/15 14:44:28;;;;;;;8.10;3.33;;;;;;;3.19;70.95;98791.38;10440992;28;20036;-64
2024/01/15 14:49:29;;;;;;;4.93;3.55;;;;;;;3.40;69.23;98788.13;10439207;28;20048;-65
2024/01/15 14:54:31;;;;;;;4.15;2.35;;;;;;;3.64;69.36;98795.13;10440641;28;20056;-65
2024/01/15 14:59:32;;;;;;;4.72;3.20;;;;;;;3.64;68.39;98792.50;10436241;28;20139;-64
2024/01/15 15:04:34;;;;;;;5.55;3.25;;;;;;;3.30;68.23;98781.84;10406745;28;20111;-64
2024/01/15 15:09:37;;;;;;;5.78;4.35;;;;;;;3.44;68.21;98799.22;10442601;28;20045;-65
2024/01/15 15:14:38;;;;;;;6.22;4.55;;;;;;;3.22;69.01;98811.34;10418515;28;20143;-65
2024/01/15 15:19:56;;;;;;;6.22;3.83;;;;;;;3.24;69.68;98819.94;10431212;28;20057;-64
2024/01/15 15:24:58;;;;;;;6.18;4.47;;;;;;;3.32;70.06;98832.56;10425776;28;20476;-64
2024/01/15 15:30:00;;;;;;;8.52;5.38;;;;;;;3.36;69.78;98834.00;10424960;28;20110;-64
2024/01/15 15:35:01;;;;;;;10.30;6.72;;;;;;;3.13;69.36;98810.22;10441453;28;20041;-64
2024/01/15 15:40:08;;;;;;;6.53;4.75;;;;;;;3.29;69.29;98851.22;10413858;28;20099;-64
2024/01/15 15:45:12;;;;;;;8.00;4.93;;;;;;;3.05;69.15;98833.63;10398558;28;20052;-66
2024/01/15 15:50:14;;;;;;;5.50;4.05;;;;;;;3.05;68.81;98841.50;10438878;28;20063;-65
2024/01/15 15:55:16;;;;;;;8.38;4.85;;;;;;;2.95;69.25;98874.66;10413147;28;20055;-65
2024/01/15 16:00:18;;;;;;;4.85;3.65;;;;;;;3.05;69.47;98872.19;10415838;28;20534;-64
2024/01/15 16:05:20;;;;;;;6.70;3.80;;;;;;;2.94;69.24;98875.59;10415290;28;20048;-63
2024/01/15 16:10:21;;;;;;;9.82;4.40;;;;;;;2.89;69.74;98890.88;10442548;28;20690;-64
2024/01/15 16:15:23;;;;;;;5.20;3.70;;;;;;;3.04;69.20;98897.66;10430213;28;20102;-63
2024/01/15 16:20:24;;;;;;;5.78;3.33;;;;;;;2.90;68.77;98896.00;10403479;28;20560;-63
2024/01/15 16:25:46;;;;;;;3.22;2.72;;;;;;;2.95;68.58;98903.56;10408975;28;20048;-64
2024/01/15 16:30:48;;;;;;;5.50;2.78;;;;;;;2.89;68.55;98914.53;10424088;28;20060;-65
2024/01/15 16:35:57;;;;;;;4.78;2.47;;;;;;;2.72;68.42;98918.31;10443345;28;20723;-64
2024/01/15 16:40:59;;;;;;;5.18;3.03;;;;;;;2.68;68.07;98922.09;10407002;28;20135;-63
2024/01/15 16:46:00;;;;;;;5.22;2.85;;;;;;;2.48;67.49;98925.16;10414636;28;20053;-64
2024/01/15 16:51:02;;;;;;;4.30;2.38;;;;;;;2.32;68.09;98908.75;10396982;28;20491;-64
2024/01/15 16:56:04;;;;;;;4.20;3.13;;;;;;;2.42;67.51;98938.69;10437207;28;20060;-63
2024/01/15 17:01:08;;;;;;;10.02;3.70;;;;;;;2.38;68.13;98962.66;10426783;28;20064;-64
2024/01/15 17:06:10;;;;;;;4.05;2.20;;;;;;;2.57;67.46;98967.50;10424339;28;20225;-63
2024/01/15 17:11:11;;;;;;;5.00;2.20;;;;;;;2.23;67.16;98941.72;10396388;28;20044;-65
2024/01/15 17:16:13;;;;;;;4.28;2.55;;;;;;;2.57;67.05;98983.28;10406191;28;20109;-65
2024/01/15 17:21:15;;;;;;;2.22;1.55;;;;;;;2.53;68.00;98997.56;10414579;28;20072;-64
2024/01/15 17:26:19;;;;;;;3.35;1.58;;;;;;;2.58;67.55;98984.94;10434582;28;20060;-64
2024/01/15 17:31:20;;;;;;;3.45;1.50;;;;;;;2.55;68.22;98995.66;10407850;28;20460;-64
2024/01/15 17:36:22;;;;;;;2.88;2.20;;;;;;;2.58;67.88;98995.44;10398090;28;20057;-66
2024/01/15 17:41:23;;;;;;;3.17;2.10;;;;;;;2.60;68.35;99030.38;10405075;28;20049;-66
2024/01/15 17:46:24;;;;;;;2.40;1.60;;;;;;;2.54;68.98;99028.97;10421597;28;20052;-63
2024/01/15 17:51:31;;;;;;;4.20;2.03;;;;;;;2.71;68.25;99040.97;10397417;28;20096;-64
2024/01/15 17:56:32;;;;;;;3.53;2.17;;;;;;;2.67;69.09;99034.22;10431005;28;20048;-65
2024/01/15 18:01:35;;;;;;;1.60;1.50;;;;;;;2.76;69.09;99062.56;10439109;28;20048;-64
2024/01/15 18:06:37;;;;;;;6.40;2.60;;;;;;;2.82;68.64;99067.38;10422540;28;20766;-64
2024/01/15 18:11:38;;;;;;;3.35;2.10;;;;;;;2.72;68.92;99065.47;10437711;28;20762;-64
2024/01/15 18:16:40;;;;;;;3.35;1.70;;;;;;;2.55;69.66;99063.97;10435371;28;20055;-63
2024/01/15 18:21:42;;;;;;;4.28;2.22;;;;;;;2.66;70.01;99082.50;10413030;28;20624;-64
2024/01/15 18:26:44;;;;;;;4.75;2.20;;;;;;;2.68;69.48;99075.34;10435650;28;20057;-65
2024/01/15 18:31:47;;;;;;;6.40;2.40;;;;;;;2.74;69.70;99085.44;10436327;28;20059;-63
2024/01/15 18:36:51;;;;;;;4.93;2.28;;;;;;;2.65;70.17;99088.69;10435093;28;20045;-65
2024/01/15 18:41:53;;;;;;;3.78;2.67;;;;;;;2.50;70.98;99108.94;10437098;28;20615;-64
2024/01/15 18:46:54;;;;;;;4.07;2.38;;;;;;;2.37;71.50;99121.16;10396645;28;20099;-64
2024/01/15 18:51:56;;;;;;;2.58;1.67;;;;;;;2.30;71.51;99139.13;10419588;28;20051;-64
2024/01/15 18:56:58;;;;;;;5.05;2.72;;;;;;;2.46;72.07;99133.69;10437251;28;20048;-65
2024/01/15 19:02:00;;;;;;;2.65;2.38;;;;;;;2.43;74.31;99134.78;10422188;28;20063;-66
2024/01/15 19:07:10;;;;;;;3.97;2.22;;;;;;;2.35;76.12;99137.03;10397242;28;20059;-65
2024/01/15 19:12:12;;;;;;;5.30;2.95;;;;;;;2.50;75.82;99147.50;10390535;28;20241;-62
2024/01/15 19:17:14;;;;;;;6.43;2.65;;;;;;;2.55;74.98;99148.91;10415808;28;20564;-63
2024/01/15 19:22:15;;;;;;;4.43;2.47;;;;;;;2.54;74.08;99141.94;10416416;28;20098;-65
2024/01/15 19:27:17;;;;;;;5.72;3.28;;;;;;;2.38;75.18;99152.59;10444583;28;20064;-63
2024/01/15 19:32:19;;;;;;;4.72;2.63;;;;;;;2.52;74.60;99149.06;10441079;28;20048;-62
2024/01/15 19:37:20;;;;;;;4.05;2.33;;;;;;;2.46;74.24;99159.97;10417116;28;20067;-64
2024/01/15 19:42:22;;;;;;;3.63;1.70;;;;;;;2.23;75.05;99164.09;10422649;28;20134;-63
2024/01/15 19:47:28;;;;;;;6.63;2.25;;;;;;;2.43;74.41;99147.91;10441203;28;20048;-63
2024/01/15 19:52:30;;;;;;;2.28;1.85;;;;;;;2.50;73.24;99155.38;10418056;28;21295;-64
2024/01/15 19:57:32;;;;;;;3.67;1.98;;;;;;;2.31;72.64;99167.03;10442587;28;20049;-63
2024/01/15 20:02:33;;;;;;;4.85;2.70;;;;;;;2.33;72.28;99159.06;10439576;28;20587;-65
2024/01/15 20:07:36;;;;;;;7.38;3.00;;;;;;;2.39;72.15;99175.28;10438693;28;20056;-65
2024/01/15 20:12:39;;;;;;;3.60;2.25;;;;;;;2.48;72.11;99176.50;10440452;28;20142;-62
2024/01/15 20:17:41;;;;;;;8.02;3.20;;;;;;;2.51;71.96;99183.31;10437359;28;20091;-63
2024/01/15 20:22:44;;;;;;;5.90;2.72;;;;;;;2.33;71.94;99174.81;10384605;28;20197;-63
2024/01/15 20:27:45;;;;;;;4.22;2.00;;;;;;;2.48;72.10;99193.09;10415155;28;20263;-62
2024/01/15 20:32:47;;;;;;;4.68;2.30;;;;;;;2.56;70.85;99210.16;10392381;28;20047;-63
2024/01/15 20:37:48;;;;;;;3.30;2.17;;;;;;;2.61;70.42;99210.69;10438546;28;20462;-66
2024/01/15 20:42:50;;;;;;;2.42;1.70;;;;;;;2.65;70.45;99204.31;10434952;28;21233;-64
2024/01/15 20:47:51;;;;;;;5.78;2.13;;;;;;;2.63;69.59;99206.19;10414364;28;20145;-63
2024/01/15 20:52:53;;;;;;;4.13;2.30;;;;;;;2.66;69.34;99219.13;10413153;28;20044;-62
2024/01/15 20:57:56;;;;;;;3.38;1.75;;;;;;;2.67;69.59;99222.59;10440209;28;20060;-63
2024/01/15 21:02:58;;;;;;;3.80;2.65;;;;;;;2.66;68.71;99229.66;10425107;28;20127;-61
2024/01/15 21:08:03;;;;;;;3.20;1.53;;;;;;;2.58;69.09;99242.41;10407595;28;20683;-63
2024/01/15 21:13:06;;;;;;;5.50;2.00;;;;;;;2.63;68.77;99250.88;10363449;28;20053;-63
2024/01/15 21:18:08;;;;;;;6.57;2.25;;;;;;;2.68;68.64;99259.28;10394477;28;20076;-64
2024/01/15 21:23:11;;;;;;;3.60;1.65;;;;;;;2.64;68.60;99274.41;10413600;28;20658;-63
2024/01/15 21:28:12;;;;;;;5.03;1.90;;;;;;;2.64;68.58;99278.81;10431063;28;20689;-63
2024/01/15 21:33:14;;;;;;;5.30;1.80;;;;;;;2.78;68.28;99283.22;10439573;28;20183;-62
2024/01/15 21:38:15;;;;;;;3.78;1.63;;;;;;;2.80;68.07;99299.72;10440591;28;20430;-65
2024/01/15 21:43:19;;;;;;;3.45;1.60;;;;;;;2.76;67.85;99298.22;10438746;28;20465;-63
2024/01/15 21:48:20;;;;;;;3.33;1.85;;;;;;;2.83;68.11;99299.53;10436806;28;20097;-62
2024/01/15 21:53:22;;;;;;;4.22;1.92;;;;;;;2.91;67.60;99306.91;10410362;28;20048;-63
2024/01/15 21:58:23;;;;;;;2.88;1.75;;;;;;;2.90;67.18;99310.47;10435149;28;20056;-65
2024/01/15 22:03:27;;;;;;;3.67;1.83;;;;;;;2.96;67.19;99315.38;10435236;28;20048;-64
2024/01/15 22:08:28;;;;;;;5.22;2.33;;;;;;;2.96;66.94;99315.38;10408250;28;20130;-62
2024/01/15 22:13:32;;;;;;;4.35;2.05;;;;;;;2.85;66.71;99315.19;10419334;28;20049;-62
2024/01/15 22:18:35;;;;;;;2.58;1.90;;;;;;;2.78;66.95;99322.63;10418763;28;20059;-63
2024/01/15 22:23:36;;;;;;;4.32;1.70;;;;;;;2.78;66.87;99327.91;10421957;28;20151;-63
2024/01/15 22:28:38;;;;;;;4.25;1.58;;;;;;;2.82;66.96;99342.50;10439079;28;20059;-63
2024/01/15 22:33:39;;;;;;;4.00;2.42;;;;;;;2.74;67.35;99343.00;10434771;28;20609;-63
2024/01/15 22:38:41;;;;;;;3.70;1.50;;;;;;;2.62;66.34;99346.38;10432010;28;20110;-65
2024/01/15 22:43:43;;;;;;;5.47;2.50;;;;;;;2.72;67.05;99354.53;10425663;28;20070;-64
2024/01/15 22:48:44;;;;;;;2.33;1.33;;;;;;;2.71;67.02;99364.22;10430999;28;20668;-64
2024/01/15 22:53:46;;;;;;;5.00;1.92;;;;;;;2.75;66.76;99363.09;10427692;28;20056;-63
2024/01/15 22:58:47;;;;;;;3.00;1.20;;;;;;;2.76;66.91;99366.56;10427069;28;20567;-62
2024/01/15 23:03:49;;;;;;;4.57;1.30;;;;;;;2.79;66.72;99367.22;10402331;28;20059;-63
2024/01/15 23:08:50;;;;;;;5.80;1.67;;;;;;;2.73;66.72;99367.59;10437238;28;20053;-65
2024/01/15 23:13:54;;;;;;;2.42;1.35;;;;;;;2.79;66.66;99371.63;10436276;28;20182;-64
2024/01/15 23:18:56;;;;;;;2.90;1.63;;;;;;;2.77;66.78;99384.00;10437115;28;20056;-64
2024/01/15 23:23:57;;;;;;;3.28;1.60;;;;;;;2.69;66.78;99376.63;10396276;28;20262;-63